KBFF/BFF METAR and TAF weather

Enter ICAO airport designator
Station Type Date Time Source
KBFF METAR 2019/06/16 11:53 UTC NOAA

KBFF 161153Z AUTO 09003KT 10SM BKN070 OVC090 14/13 A3005 RMK AO2 SLP134 T01440133 10167 20128 51026


Station Type Date Time Source
KBFF Decoded METAR 2019/06/16 11:53 UTC NOAA

SCOTTSBLUFF HEILIG FIELD, NE, United States (KBFF) 41-52N 103-36W 1203M
Jun 16, 2019 - 07:53 AM EDT / 2019.06.16 1153 UTC
Wind: from the E (090 degrees) at 3 MPH (3 KT):0
Visibility: 10 mile(s):0
Sky conditions: overcast
Temperature: 57.9 F (14.4 C)
Dew Point: 55.9 F (13.3 C)
Relative Humidity: 93%
Pressure (altimeter): 30.05 in. Hg (1017 hPa)
Pressure tendency: 0.08 inches (2.6 hPa) higher than three hours ago
ob: KBFF 161153Z AUTO 09003KT 10SM BKN070 OVC090 14/13 A3005 RMK AO2 SLP134 T01440133 10167 20128 51026
cycle: 12

Station Type Date Time Source
KBFF TAF 2019/06/16 12:27 UTC NOAA

TAF KBFF 161125Z 1612/1712 VRB04KT P6SM SCT070 BKN100
FM161900 05008KT P6SM BKN060
FM162100 10008KT 5SM -TSRA BKN040CB BKN100
FM170200 11007KT P6SM SCT007 BKN070

Example: see airport list